sensor_id;sensor_type;location;lat;lon;timestamp;pressure;altitude;pressure_sealevel;temperature;humidity
55068;BME280;40965;52.368;9.712;2022-08-19T00:01:57;100620.31;;;19.38;93.54
55068;BME280;40965;52.368;9.712;2022-08-19T00:04:28;100626.56;;;19.37;93.50
55068;BME280;40965;52.368;9.712;2022-08-19T00:06:56;100626.63;;;19.35;93.67
55068;BME280;40965;52.368;9.712;2022-08-19T00:09:25;100624.81;;;19.36;93.48
55068;BME280;40965;52.368;9.712;2022-08-19T00:11:53;100615.88;;;19.38;93.41
55068;BME280;40965;52.368;9.712;2022-08-19T00:14:21;100624.63;;;19.40;93.30
55068;BME280;40965;52.368;9.712;2022-08-19T00:16:49;100625.56;;;19.39;92.96
55068;BME280;40965;52.368;9.712;2022-08-19T00:19:19;100627.34;;;19.39;92.95
55068;BME280;40965;52.368;9.712;2022-08-19T00:21:47;100617.75;;;19.36;93.24
55068;BME280;40965;52.368;9.712;2022-08-19T00:24:14;100614.28;;;19.34;93.49
55068;BME280;40965;52.368;9.712;2022-08-19T00:26:42;100595.88;;;19.31;93.82
55068;BME280;40965;52.368;9.712;2022-08-19T00:29:15;100592.56;;;19.26;94.49
55068;BME280;40965;52.368;9.712;2022-08-19T00:31:45;100584.78;;;19.21;94.56
55068;BME280;40965;52.368;9.712;2022-08-19T00:34:13;100573.59;;;19.14;94.63
55068;BME280;40965;52.368;9.712;2022-08-19T00:36:41;100575.88;;;19.03;95.14
55068;BME280;40965;52.368;9.712;2022-08-19T00:39:10;100580.75;;;18.93;95.97
55068;BME280;40965;52.368;9.712;2022-08-19T00:41:38;100585.56;;;18.83;96.25
55068;BME280;40965;52.368;9.712;2022-08-19T00:44:06;100576.94;;;18.78;97.27
55068;BME280;40965;52.368;9.712;2022-08-19T00:46:37;100576.44;;;18.70;97.66
55068;BME280;40965;52.368;9.712;2022-08-19T00:49:32;100585.59;;;18.63;98.20
55068;BME280;40965;52.368;9.712;2022-08-19T00:52:18;100576.25;;;18.54;99.11
55068;BME280;40965;52.368;9.712;2022-08-19T00:54:48;100567.50;;;18.52;99.44
55068;BME280;40965;52.368;9.712;2022-08-19T00:57:18;100568.50;;;18.49;99.38
55068;BME280;40965;52.368;9.712;2022-08-19T00:59:51;100568.56;;;18.48;99.59
55068;BME280;40965;52.368;9.712;2022-08-19T01:02:19;100558.09;;;18.45;99.99
55068;BME280;40965;52.368;9.712;2022-08-19T01:04:45;100553.72;;;18.44;99.80
55068;BME280;40965;52.368;9.712;2022-08-19T01:07:12;100552.16;;;18.40;100.00
55068;BME280;40965;52.368;9.712;2022-08-19T01:09:39;100545.19;;;18.37;100.00
55068;BME280;40965;52.368;9.712;2022-08-19T01:12:06;100543.59;;;18.33;100.00
55068;BME280;40965;52.368;9.712;2022-08-19T01:14:34;100548.16;;;18.29;100.00
55068;BME280;40965;52.368;9.712;2022-08-19T01:17:02;100545.63;;;18.26;100.00
55068;BME280;40965;52.368;9.712;2022-08-19T01:19:33;100539.66;;;18.21;100.00
55068;BME280;40965;52.368;9.712;2022-08-19T01:22:11;100551.41;;;18.15;100.00
55068;BME280;40965;52.368;9.712;2022-08-19T01:24:41;100556.84;;;18.12;100.00
55068;BME280;40965;52.368;9.712;2022-08-19T01:27:08;100547.09;;;18.13;100.00
55068;BME280;40965;52.368;9.712;2022-08-19T01:29:38;100544.50;;;18.11;100.00
55068;BME280;40965;52.368;9.712;2022-08-19T01:32:07;100547.16;;;18.11;100.00
55068;BME280;40965;52.368;9.712;2022-08-19T01:34:37;100550.88;;;18.07;100.00
55068;BME280;40965;52.368;9.712;2022-08-19T01:37:08;100554.28;;;18.09;100.00
55068;BME280;40965;52.368;9.712;2022-08-19T01:39:38;100553.38;;;18.10;100.00
55068;BME280;40965;52.368;9.712;2022-08-19T01:42:07;100559.47;;;18.12;100.00
55068;BME280;40965;52.368;9.712;2022-08-19T01:44:38;100550.66;;;18.12;100.00
55068;BME280;40965;52.368;9.712;2022-08-19T01:47:07;100544.56;;;18.10;100.00
55068;BME280;40965;52.368;9.712;2022-08-19T01:49:36;100539.34;;;18.08;100.00
55068;BME280;40965;52.368;9.712;2022-08-19T01:52:07;100529.59;;;18.09;100.00
55068;BME280;40965;52.368;9.712;2022-08-19T01:54:34;100525.22;;;18.08;100.00
55068;BME280;40965;52.368;9.712;2022-08-19T01:57:07;100526.09;;;18.08;100.00
55068;BME280;40965;52.368;9.712;2022-08-19T01:59:35;100522.72;;;18.05;100.00
55068;BME280;40965;52.368;9.712;2022-08-19T02:02:05;100528.78;;;18.07;100.00
55068;BME280;40965;52.368;9.712;2022-08-19T02:04:33;100534.06;;;18.08;100.00
55068;BME280;40965;52.368;9.712;2022-08-19T02:07:00;100534.75;;;18.12;100.00
55068;BME280;40965;52.368;9.712;2022-08-19T02:09:31;100523.16;;;18.14;100.00
55068;BME280;40965;52.368;9.712;2022-08-19T02:11:58;100529.13;;;18.19;100.00
55068;BME280;40965;52.368;9.712;2022-08-19T02:14:25;100540.53;;;18.22;100.00
55068;BME280;40965;52.368;9.712;2022-08-19T02:16:52;100542.00;;;18.29;100.00
55068;BME280;40965;52.368;9.712;2022-08-19T02:19:18;100545.44;;;18.31;100.00
55068;BME280;40965;52.368;9.712;2022-08-19T02:21:45;100545.31;;;18.34;100.00
55068;BME280;40965;52.368;9.712;2022-08-19T02:24:12;100539.16;;;18.33;100.00
55068;BME280;40965;52.368;9.712;2022-08-19T02:26:39;100533.00;;;18.33;100.00
55068;BME280;40965;52.368;9.712;2022-08-19T02:29:06;100533.03;;;18.31;100.00
55068;BME280;40965;52.368;9.712;2022-08-19T02:31:36;100529.63;;;18.29;100.00
55068;BME280;40965;52.368;9.712;2022-08-19T02:34:02;100524.44;;;18.26;100.00
55068;BME280;40965;52.368;9.712;2022-08-19T02:36:29;100525.31;;;18.27;100.00
55068;BME280;40965;52.368;9.712;2022-08-19T02:38:56;100524.31;;;18.29;100.00
55068;BME280;40965;52.368;9.712;2022-08-19T02:41:26;100518.94;;;18.31;100.00
55068;BME280;40965;52.368;9.712;2022-08-19T02:43:55;100518.03;;;18.32;100.00
55068;BME280;40965;52.368;9.712;2022-08-19T02:46:26;100526.09;;;18.29;100.00
55068;BME280;40965;52.368;9.712;2022-08-19T02:49:00;100521.75;;;18.28;100.00
55068;BME280;40965;52.368;9.712;2022-08-19T02:51:33;100521.78;;;18.26;100.00
55068;BME280;40965;52.368;9.712;2022-08-19T02:54:02;100522.78;;;18.24;100.00
55068;BME280;40965;52.368;9.712;2022-08-19T02:56:30;100520.28;;;18.21;100.00
55068;BME280;40965;52.368;9.712;2022-08-19T02:59:00;100532.78;;;18.17;100.00
55068;BME280;40965;52.368;9.712;2022-08-19T03:01:31;100526.69;;;18.15;100.00
55068;BME280;40965;52.368;9.712;2022-08-19T03:04:01;100524.16;;;18.12;100.00
55068;BME280;40965;52.368;9.712;2022-08-19T03:06:29;100519.84;;;18.09;100.00
55068;BME280;40965;52.368;9.712;2022-08-19T03:08:57;100524.38;;;18.07;100.00
55068;BME280;40965;52.368;9.712;2022-08-19T03:11:31;100526.28;;;18.04;100.00
55068;BME280;40965;52.368;9.712;2022-08-19T03:13:58;100530.84;;;18.00;100.00
55068;BME280;40965;52.368;9.712;2022-08-19T03:16:27;100523.78;;;18.00;100.00
55068;BME280;40965;52.368;9.712;2022-08-19T03:18:56;100535.47;;;17.95;100.00
55068;BME280;40965;52.368;9.712;2022-08-19T03:21:31;100540.06;;;17.90;100.00
55068;BME280;40965;52.368;9.712;2022-08-19T03:24:02;100539.38;;;17.84;100.00
55068;BME280;40965;52.368;9.712;2022-08-19T03:26:42;100542.25;;;17.80;100.00
55068;BME280;40965;52.368;9.712;2022-08-19T03:29:20;100540.59;;;17.77;100.00
55068;BME280;40965;52.368;9.712;2022-08-19T03:31:49;100544.22;;;17.75;100.00
55068;BME280;40965;52.368;9.712;2022-08-19T03:34:28;100538.25;;;17.69;100.00
55068;BME280;40965;52.368;9.712;2022-08-19T03:37:03;100541.94;;;17.65;100.00
55068;BME280;40965;52.368;9.712;2022-08-19T03:39:31;100541.19;;;17.62;100.00
55068;BME280;40965;52.368;9.712;2022-08-19T03:41:58;100540.50;;;17.57;100.00
55068;BME280;40965;52.368;9.712;2022-08-19T03:44:27;100553.06;;;17.51;100.00
55068;BME280;40965;52.368;9.712;2022-08-19T03:46:58;100571.72;;;17.48;100.00
55068;BME280;40965;52.368;9.712;2022-08-19T03:49:28;100569.19;;;17.45;100.00
55068;BME280;40965;52.368;9.712;2022-08-19T03:51:57;100568.47;;;17.42;100.00
55068;BME280;40965;52.368;9.712;2022-08-19T03:54:26;100562.34;;;17.40;100.00
55068;BME280;40965;52.368;9.712;2022-08-19T03:56:55;100570.28;;;17.40;100.00
55068;BME280;40965;52.368;9.712;2022-08-19T03:59:29;100561.50;;;17.39;100.00
55068;BME280;40965;52.368;9.712;2022-08-19T04:02:01;100561.44;;;17.41;100.00
55068;BME280;40965;52.368;9.712;2022-08-19T04:04:30;100555.41;;;17.37;100.00
55068;BME280;40965;52.368;9.712;2022-08-19T04:06:56;100553.66;;;17.36;100.00
55068;BME280;40965;52.368;9.712;2022-08-19T04:09:24;100557.28;;;17.33;100.00
55068;BME280;40965;52.368;9.712;2022-08-19T04:11:56;100568.00;;;17.30;100.00
55068;BME280;40965;52.368;9.712;2022-08-19T04:14:27;100566.34;;;17.28;100.00
55068;BME280;40965;52.368;9.712;2022-08-19T04:16:58;100577.91;;;17.25;100.00
55068;BME280;40965;52.368;9.712;2022-08-19T04:19:26;100579.91;;;17.18;100.00
55068;BME280;40965;52.368;9.712;2022-08-19T04:21:57;100582.66;;;17.15;100.00
55068;BME280;40965;52.368;9.712;2022-08-19T04:24:24;100577.50;;;17.12;100.00
55068;BME280;40965;52.368;9.712;2022-08-19T04:26:51;100574.16;;;17.07;100.00
55068;BME280;40965;52.368;9.712;2022-08-19T04:29:21;100574.28;;;17.04;100.00
55068;BME280;40965;52.368;9.712;2022-08-19T04:31:50;100574.28;;;17.04;100.00
55068;BME280;40965;52.368;9.712;2022-08-19T04:34:20;100569.91;;;17.03;100.00
55068;BME280;40965;52.368;9.712;2022-08-19T04:36:51;100564.63;;;17.03;100.00
55068;BME280;40965;52.368;9.712;2022-08-19T04:39:25;100561.06;;;17.04;100.00
55068;BME280;40965;52.368;9.712;2022-08-19T04:42:17;100561.91;;;17.05;100.00
55068;BME280;40965;52.368;9.712;2022-08-19T04:45:03;100554.97;;;17.02;100.00
55068;BME280;40965;52.368;9.712;2022-08-19T04:47:35;100558.50;;;17.01;100.00
55068;BME280;40965;52.368;9.712;2022-08-19T04:50:06;100560.25;;;17.02;100.00
55068;BME280;40965;52.368;9.712;2022-08-19T04:52:38;100566.38;;;17.02;100.00
55068;BME280;40965;52.368;9.712;2022-08-19T04:55:09;100573.53;;;17.00;100.00
55068;BME280;40965;52.368;9.712;2022-08-19T04:57:37;100570.94;;;16.99;100.00
55068;BME280;40965;52.368;9.712;2022-08-19T05:00:06;100571.66;;;17.02;100.00
55068;BME280;40965;52.368;9.712;2022-08-19T05:02:34;100570.66;;;17.07;100.00
55068;BME280;40965;52.368;9.712;2022-08-19T05:05:01;100581.13;;;17.10;100.00
55068;BME280;40965;52.368;9.712;2022-08-19T05:07:31;100581.94;;;17.12;100.00
55068;BME280;40965;52.368;9.712;2022-08-19T05:09:58;100589.75;;;17.15;100.00
55068;BME280;40965;52.368;9.712;2022-08-19T05:12:25;100584.28;;;17.19;100.00
55068;BME280;40965;52.368;9.712;2022-08-19T05:14:52;100585.91;;;17.24;100.00
55068;BME280;40965;52.368;9.712;2022-08-19T05:17:32;100586.69;;;17.26;100.00
55068;BME280;40965;52.368;9.712;2022-08-19T05:19:58;100587.31;;;17.32;100.00
55068;BME280;40965;52.368;9.712;2022-08-19T05:22:44;100572.19;;;17.36;100.00
55068;BME280;40965;52.368;9.712;2022-08-19T05:25:17;100565.84;;;17.40;100.00
55068;BME280;40965;52.368;9.712;2022-08-19T05:27:45;100569.31;;;17.42;100.00
55068;BME280;40965;52.368;9.712;2022-08-19T05:30:15;100567.47;;;17.44;100.00
55068;BME280;40965;52.368;9.712;2022-08-19T05:32:42;100557.69;;;17.46;100.00
55068;BME280;40965;52.368;9.712;2022-08-19T05:35:09;100559.34;;;17.49;100.00
55068;BME280;40965;52.368;9.712;2022-08-19T05:37:39;100560.88;;;17.55;100.00
55068;BME280;40965;52.368;9.712;2022-08-19T05:40:07;100572.03;;;17.63;100.00
55068;BME280;40965;52.368;9.712;2022-08-19T05:42:38;100558.50;;;17.71;100.00
55068;BME280;40965;52.368;9.712;2022-08-19T05:45:06;100560.09;;;17.75;100.00
55068;BME280;40965;52.368;9.712;2022-08-19T05:47:33;100569.94;;;17.71;100.00
55068;BME280;40965;52.368;9.712;2022-08-19T05:50:01;100569.09;;;17.71;100.00
55068;BME280;40965;52.368;9.712;2022-08-19T05:52:30;100554.91;;;17.72;100.00
55068;BME280;40965;52.368;9.712;2022-08-19T05:54:57;100561.75;;;17.77;100.00
55068;BME280;40965;52.368;9.712;2022-08-19T05:57:31;100565.16;;;17.81;100.00
55068;BME280;40965;52.368;9.712;2022-08-19T06:00:19;100571.91;;;17.88;100.00
55068;BME280;40965;52.368;9.712;2022-08-19T06:02:52;100569.81;;;17.96;100.00
55068;BME280;40965;52.368;9.712;2022-08-19T06:05:31;100571.38;;;18.02;100.00
55068;BME280;40965;52.368;9.712;2022-08-19T06:07:59;100572.44;;;17.98;100.00
55068;BME280;40965;52.368;9.712;2022-08-19T06:10:25;100577.00;;;17.94;100.00
55068;BME280;40965;52.368;9.712;2022-08-19T06:12:53;100577.84;;;17.95;100.00
55068;BME280;40965;52.368;9.712;2022-08-19T06:15:21;100587.66;;;17.93;100.00
55068;BME280;40965;52.368;9.712;2022-08-19T06:17:50;100583.22;;;17.93;100.00
55068;BME280;40965;52.368;9.712;2022-08-19T06:20:20;100577.91;;;17.93;100.00
55068;BME280;40965;52.368;9.712;2022-08-19T06:22:49;100579.72;;;17.93;100.00
55068;BME280;40965;52.368;9.712;2022-08-19T06:25:21;100585.69;;;17.98;100.00
55068;BME280;40965;52.368;9.712;2022-08-19T06:27:47;100590.66;;;18.06;100.00
55068;BME280;40965;52.368;9.712;2022-08-19T06:30:14;100589.47;;;18.13;100.00
55068;BME280;40965;52.368;9.712;2022-08-19T06:32:41;100594.44;;;18.21;99.43
55068;BME280;40965;52.368;9.712;2022-08-19T06:35:08;100601.22;;;18.28;98.84
55068;BME280;40965;52.368;9.712;2022-08-19T06:37:37;100598.19;;;18.37;97.59
55068;BME280;40965;52.368;9.712;2022-08-19T06:40:04;100595.25;;;18.43;96.53
55068;BME280;40965;52.368;9.712;2022-08-19T06:42:36;100601.38;;;18.45;95.78
55068;BME280;40965;52.368;9.712;2022-08-19T06:45:06;100603.03;;;18.48;94.93
55068;BME280;40965;52.368;9.712;2022-08-19T06:47:34;100608.19;;;18.51;94.36
55068;BME280;40965;52.368;9.712;2022-08-19T06:50:02;100607.50;;;18.46;94.24
55068;BME280;40965;52.368;9.712;2022-08-19T06:52:31;100612.03;;;18.44;93.52
55068;BME280;40965;52.368;9.712;2022-08-19T06:54:59;100620.84;;;18.44;94.17
55068;BME280;40965;52.368;9.712;2022-08-19T06:57:27;100618.84;;;18.49;94.05
55068;BME280;40965;52.368;9.712;2022-08-19T06:59:58;100615.94;;;18.56;92.74
55068;BME280;40965;52.368;9.712;2022-08-19T07:02:29;100623.75;;;18.59;92.35
55068;BME280;40965;52.368;9.712;2022-08-19T07:04:56;100625.31;;;18.64;91.94
55068;BME280;40965;52.368;9.712;2022-08-19T07:07:29;100628.22;;;18.79;91.03
55068;BME280;40965;52.368;9.712;2022-08-19T07:09:56;100639.13;;;18.93;90.00
55068;BME280;40965;52.368;9.712;2022-08-19T07:12:31;100633.56;;;19.18;88.19
55068;BME280;40965;52.368;9.712;2022-08-19T07:14:59;100637.75;;;19.43;86.89
55068;BME280;40965;52.368;9.712;2022-08-19T07:17:27;100630.28;;;19.71;85.08
55068;BME280;40965;52.368;9.712;2022-08-19T07:19:54;100636.38;;;19.92;81.27
55068;BME280;40965;52.368;9.712;2022-08-19T07:22:21;100645.78;;;19.99;80.57
55068;BME280;40965;52.368;9.712;2022-08-19T07:24:48;100652.03;;;19.98;80.19
55068;BME280;40965;52.368;9.712;2022-08-19T07:27:19;100651.56;;;19.90;80.72
55068;BME280;40965;52.368;9.712;2022-08-19T07:29:49;100647.97;;;19.91;79.69
55068;BME280;40965;52.368;9.712;2022-08-19T07:32:17;100652.03;;;19.98;80.07
55068;BME280;40965;52.368;9.712;2022-08-19T07:34:48;100663.94;;;20.08;79.13
55068;BME280;40965;52.368;9.712;2022-08-19T07:37:18;100673.13;;;20.20;78.70
55068;BME280;40965;52.368;9.712;2022-08-19T07:39:56;100676.50;;;20.24;78.88
55068;BME280;40965;52.368;9.712;2022-08-19T07:42:22;100675.41;;;20.28;77.27
55068;BME280;40965;52.368;9.712;2022-08-19T07:44:50;100681.56;;;20.28;77.79
55068;BME280;40965;52.368;9.712;2022-08-19T07:47:17;100690.75;;;20.40;77.39
55068;BME280;40965;52.368;9.712;2022-08-19T07:49:44;100690.59;;;20.43;76.57
55068;BME280;40965;52.368;9.712;2022-08-19T07:52:10;100694.81;;;20.47;76.32
55068;BME280;40965;52.368;9.712;2022-08-19T07:54:38;100703.50;;;20.51;74.98
55068;BME280;40965;52.368;9.712;2022-08-19T07:57:08;100706.25;;;20.49;76.13
55068;BME280;40965;52.368;9.712;2022-08-19T07:59:35;100707.81;;;20.54;75.13
55068;BME280;40965;52.368;9.712;2022-08-19T08:02:04;100699.38;;;20.63;75.00
55068;BME280;40965;52.368;9.712;2022-08-19T08:04:32;100701.38;;;20.77;75.02
55068;BME280;40965;52.368;9.712;2022-08-19T08:07:16;100695.84;;;20.97;73.76
55068;BME280;40965;52.368;9.712;2022-08-19T08:10:05;100702.50;;;21.06;73.09
55068;BME280;40965;52.368;9.712;2022-08-19T08:12:37;100709.34;;;21.12;72.33
55068;BME280;40965;52.368;9.712;2022-08-19T08:15:08;100715.59;;;21.11;70.62
55068;BME280;40965;52.368;9.712;2022-08-19T08:17:37;100706.38;;;21.01;71.18
55068;BME280;40965;52.368;9.712;2022-08-19T08:20:05;100708.22;;;20.98;70.59
55068;BME280;40965;52.368;9.712;2022-08-19T08:22:36;100704.78;;;21.14;70.92
55068;BME280;40965;52.368;9.712;2022-08-19T08:25:23;100709.81;;;21.36;68.82
55068;BME280;40965;52.368;9.712;2022-08-19T08:27:54;100707.13;;;21.54;68.14
55068;BME280;40965;52.368;9.712;2022-08-19T08:30:25;100704.53;;;21.86;67.09
55068;BME280;40965;52.368;9.712;2022-08-19T08:32:54;100704.53;;;22.18;65.78
55068;BME280;40965;52.368;9.712;2022-08-19T08:35:23;100705.53;;;22.31;64.47
55068;BME280;40965;52.368;9.712;2022-08-19T08:37:53;100699.53;;;22.27;64.52
55068;BME280;40965;52.368;9.712;2022-08-19T08:43:32;100714.31;;;22.17;63.93
55068;BME280;40965;52.368;9.712;2022-08-19T08:46:34;100706.84;;;22.08;63.08
55068;BME280;40965;52.368;9.712;2022-08-19T08:49:41;100712.69;;;21.98;63.58
55068;BME280;40965;52.368;9.712;2022-08-19T08:52:28;100708.03;;;22.18;62.90
55068;BME280;40965;52.368;9.712;2022-08-19T08:55:10;100709.44;;;22.72;61.77
55068;BME280;40965;52.368;9.712;2022-08-19T09:00:23;100709.09;;;24.77;54.66
55068;BME280;40965;52.368;9.712;2022-08-19T09:02:54;100706.34;;;24.91;54.43
55068;BME280;40965;52.368;9.712;2022-08-19T09:05:27;100708.69;;;24.96;52.85
55068;BME280;40965;52.368;9.712;2022-08-19T09:08:20;100707.47;;;24.87;52.79
55068;BME280;40965;52.368;9.712;2022-08-19T09:11:04;100699.13;;;24.79;53.79
55068;BME280;40965;52.368;9.712;2022-08-19T09:13:51;100698.13;;;24.67;53.22
55068;BME280;40965;52.368;9.712;2022-08-19T09:16:29;100708.22;;;24.49;51.82
55068;BME280;40965;52.368;9.712;2022-08-19T09:19:01;100708.63;;;24.43;53.47
55068;BME280;40965;52.368;9.712;2022-08-19T09:21:30;100709.69;;;24.68;52.99
55068;BME280;40965;52.368;9.712;2022-08-19T09:23:57;100700.66;;;25.22;50.97
55068;BME280;40965;52.368;9.712;2022-08-19T09:26:25;100708.06;;;25.57;49.77
55068;BME280;40965;52.368;9.712;2022-08-19T09:28:53;100698.59;;;25.64;49.94
55068;BME280;40965;52.368;9.712;2022-08-19T09:31:23;100700.41;;;25.76;49.04
55068;BME280;40965;52.368;9.712;2022-08-19T09:33:53;100690.94;;;25.84;48.78
55068;BME280;40965;52.368;9.712;2022-08-19T09:36:24;100690.13;;;26.32;47.73
55068;BME280;40965;52.368;9.712;2022-08-19T09:39:09;100686.34;;;26.94;46.02
55068;BME280;40965;52.368;9.712;2022-08-19T09:41:37;100678.69;;;27.12;45.21
55068;BME280;40965;52.368;9.712;2022-08-19T09:44:04;100677.72;;;27.70;44.33
55068;BME280;40965;52.368;9.712;2022-08-19T09:46:33;100678.44;;;28.60;42.03
55068;BME280;40965;52.368;9.712;2022-08-19T09:49:04;100687.56;;;29.11;41.34
55068;BME280;40965;52.368;9.712;2022-08-19T09:51:32;100692.78;;;29.02;40.71
55068;BME280;40965;52.368;9.712;2022-08-19T09:54:02;100696.28;;;28.39;42.08
55068;BME280;40965;52.368;9.712;2022-08-19T09:56:32;100689.53;;;28.45;42.39
55068;BME280;40965;52.368;9.712;2022-08-19T09:59:00;100682.50;;;28.54;41.69
55068;BME280;40965;52.368;9.712;2022-08-19T10:01:30;100681.47;;;28.87;41.26
55068;BME280;40965;52.368;9.712;2022-08-19T10:04:01;100689.38;;;30.03;39.17
55068;BME280;40965;52.368;9.712;2022-08-19T10:06:31;100684.88;;;31.67;35.61
55068;BME280;40965;52.368;9.712;2022-08-19T10:09:00;100684.97;;;32.39;34.52
55068;BME280;40965;52.368;9.712;2022-08-19T10:11:29;100688.59;;;32.66;33.12
55068;BME280;40965;52.368;9.712;2022-08-19T10:13:56;100688.94;;;33.42;33.16
55068;BME280;40965;52.368;9.712;2022-08-19T10:16:25;100686.25;;;33.93;32.28
55068;BME280;40965;52.368;9.712;2022-08-19T10:18:53;100677.09;;;34.02;32.16
55068;BME280;40965;52.368;9.712;2022-08-19T10:21:31;100684.44;;;34.68;29.59
55068;BME280;40965;52.368;9.712;2022-08-19T10:24:03;100678.38;;;35.38;29.41
55068;BME280;40965;52.368;9.712;2022-08-19T10:26:39;100679.13;;;35.64;27.91
55068;BME280;40965;52.368;9.712;2022-08-19T10:29:16;100675.50;;;36.34;27.78
55068;BME280;40965;52.368;9.712;2022-08-19T10:31:44;100660.97;;;36.57;26.14
55068;BME280;40965;52.368;9.712;2022-08-19T10:34:13;100672.22;;;36.39;26.75
55068;BME280;40965;52.368;9.712;2022-08-19T10:36:41;100666.16;;;36.67;26.73
55068;BME280;40965;52.368;9.712;2022-08-19T10:39:09;100661.81;;;36.96;26.65
55068;BME280;40965;52.368;9.712;2022-08-19T10:41:38;100653.41;;;36.82;26.91
55068;BME280;40965;52.368;9.712;2022-08-19T10:44:18;100650.13;;;37.47;25.18
55068;BME280;40965;52.368;9.712;2022-08-19T10:46:46;100651.81;;;37.48;25.07
55068;BME280;40965;52.368;9.712;2022-08-19T10:49:15;100649.78;;;37.86;25.04
55068;BME280;40965;52.368;9.712;2022-08-19T10:51:44;100638.84;;;38.08;24.84
55068;BME280;40965;52.368;9.712;2022-08-19T10:54:32;100638.63;;;37.51;23.01
55068;BME280;40965;52.368;9.712;2022-08-19T10:57:14;100633.31;;;36.83;23.62
55068;BME280;40965;52.368;9.712;2022-08-19T10:59:42;100634.66;;;36.49;24.66
55068;BME280;40965;52.368;9.712;2022-08-19T11:02:11;100634.22;;;36.75;24.39
55068;BME280;40965;52.368;9.712;2022-08-19T11:04:39;100629.16;;;37.69;23.98
55068;BME280;40965;52.368;9.712;2022-08-19T11:07:10;100627.72;;;38.31;23.28
55068;BME280;40965;52.368;9.712;2022-08-19T11:09:44;100629.41;;;38.89;22.29
55068;BME280;40965;52.368;9.712;2022-08-19T11:12:11;100621.31;;;38.46;22.76
55068;BME280;40965;52.368;9.712;2022-08-19T11:14:40;100626.19;;;38.50;23.16
55068;BME280;40965;52.368;9.712;2022-08-19T11:17:10;100631.50;;;38.30;22.84
55068;BME280;40965;52.368;9.712;2022-08-19T11:19:39;100628.28;;;38.48;23.22
55068;BME280;40965;52.368;9.712;2022-08-19T11:22:08;100623.97;;;38.61;22.36
55068;BME280;40965;52.368;9.712;2022-08-19T11:24:37;100615.50;;;38.27;22.44
55068;BME280;40965;52.368;9.712;2022-08-19T11:27:06;100606.06;;;37.86;23.11
55068;BME280;40965;52.368;9.712;2022-08-19T11:29:39;100606.56;;;38.40;23.13
55068;BME280;40965;52.368;9.712;2022-08-19T11:32:10;100611.88;;;38.77;22.40
55068;BME280;40965;52.368;9.712;2022-08-19T11:34:38;100597.50;;;38.39;22.15
55068;BME280;40965;52.368;9.712;2022-08-19T11:37:11;100603.59;;;37.55;23.31
55068;BME280;40965;52.368;9.712;2022-08-19T11:39:38;100601.09;;;37.38;22.93
55068;BME280;40965;52.368;9.712;2022-08-19T11:42:07;100595.81;;;37.22;23.69
55068;BME280;40965;52.368;9.712;2022-08-19T11:44:55;100597.69;;;37.73;22.80
55068;BME280;40965;52.368;9.712;2022-08-19T11:47:22;100598.28;;;38.12;23.08
55068;BME280;40965;52.368;9.712;2022-08-19T11:49:53;100601.97;;;38.76;21.85
55068;BME280;40965;52.368;9.712;2022-08-19T11:52:20;100606.94;;;38.37;22.52
55068;BME280;40965;52.368;9.712;2022-08-19T11:54:48;100616.03;;;37.57;23.27
55068;BME280;40965;52.368;9.712;2022-08-19T11:57:19;100609.50;;;37.58;23.35
55068;BME280;40965;52.368;9.712;2022-08-19T11:59:51;100606.31;;;37.92;22.58
55068;BME280;40965;52.368;9.712;2022-08-19T12:02:19;100604.53;;;38.05;22.43
55068;BME280;40965;52.368;9.712;2022-08-19T12:04:46;100607.00;;;38.00;22.55
55068;BME280;40965;52.368;9.712;2022-08-19T12:07:18;100603.25;;;38.23;21.67
55068;BME280;40965;52.368;9.712;2022-08-19T12:09:45;100604.34;;;38.57;21.96
55068;BME280;40965;52.368;9.712;2022-08-19T12:12:15;100581.13;;;38.18;21.75
55068;BME280;40965;52.368;9.712;2022-08-19T12:14:46;100594.28;;;37.49;22.51
55068;BME280;40965;52.368;9.712;2022-08-19T12:17:13;100585.47;;;38.12;22.67
55068;BME280;40965;52.368;9.712;2022-08-19T12:19:46;100587.16;;;38.98;21.80
55068;BME280;40965;52.368;9.712;2022-08-19T12:22:13;100580.50;;;39.76;21.08
55068;BME280;40965;52.368;9.712;2022-08-19T12:25:07;100579.81;;;39.61;21.05
55068;BME280;40965;52.368;9.712;2022-08-19T12:27:42;100587.44;;;39.65;20.90
55068;BME280;40965;52.368;9.712;2022-08-19T12:30:15;100586.19;;;39.88;21.05
55068;BME280;40965;52.368;9.712;2022-08-19T12:32:47;100582.66;;;40.28;20.60
55068;BME280;40965;52.368;9.712;2022-08-19T12:35:17;100586.75;;;41.04;19.40
55068;BME280;40965;52.368;9.712;2022-08-19T12:37:46;100574.38;;;40.75;19.87
55068;BME280;40965;52.368;9.712;2022-08-19T12:40:15;100579.19;;;40.79;19.45
55068;BME280;40965;52.368;9.712;2022-08-19T12:42:43;100573.75;;;40.66;19.37
55068;BME280;40965;52.368;9.712;2022-08-19T12:45:12;100568.78;;;40.95;19.14
55068;BME280;40965;52.368;9.712;2022-08-19T12:47:43;100584.09;;;41.29;18.87
55068;BME280;40965;52.368;9.712;2022-08-19T12:50:11;100580.06;;;41.32;18.82
55068;BME280;40965;52.368;9.712;2022-08-19T12:52:38;100590.66;;;41.28;18.58
55068;BME280;40965;52.368;9.712;2022-08-19T12:55:08;100589.09;;;41.46;18.41
55068;BME280;40965;52.368;9.712;2022-08-19T12:57:35;100589.59;;;41.29;17.89
55068;BME280;40965;52.368;9.712;2022-08-19T13:00:05;100588.72;;;41.42;18.35
55068;BME280;40965;52.368;9.712;2022-08-19T13:02:53;100580.31;;;41.30;18.34
55068;BME280;40965;52.368;9.712;2022-08-19T13:05:26;100568.16;;;41.83;17.85
55068;BME280;40965;52.368;9.712;2022-08-19T13:07:58;100565.06;;;42.24;17.75
55068;BME280;40965;52.368;9.712;2022-08-19T13:10:30;100558.63;;;42.37;17.28